createdAt,value
2023-02-07T00:00:56.156Z,-2.90
2023-02-07T00:03:23.037Z,-2.90
2023-02-07T00:05:49.876Z,-2.80
2023-02-07T00:08:16.933Z,-2.80
2023-02-07T00:10:43.933Z,-2.90
2023-02-07T00:13:10.750Z,-2.90
2023-02-07T00:15:37.749Z,-2.90
2023-02-07T00:18:04.833Z,-2.90
2023-02-07T00:20:31.838Z,-2.90
2023-02-07T00:22:58.714Z,-2.90
2023-02-07T00:25:25.790Z,-2.90
2023-02-07T00:27:52.745Z,-3.00
2023-02-07T00:30:19.729Z,-3.00
2023-02-07T00:32:46.654Z,-3.00
2023-02-07T00:35:13.744Z,-2.80
2023-02-07T00:37:40.628Z,-3.00
2023-02-07T00:40:07.862Z,-2.90
2023-02-07T00:42:35.614Z,-3.00
2023-02-07T00:45:02.489Z,-3.00
2023-02-07T00:47:29.277Z,-3.00
2023-02-07T00:49:56.098Z,-3.00
2023-02-07T00:52:22.936Z,-3.00
2023-02-07T00:54:49.891Z,-3.00
2023-02-07T00:57:16.713Z,-3.10
2023-02-07T00:59:43.644Z,-3.00
2023-02-07T01:02:10.473Z,-3.00
2023-02-07T01:04:37.314Z,-3.10
2023-02-07T01:07:04.122Z,-3.20
2023-02-07T01:09:31.079Z,-3.20
2023-02-07T01:11:58.474Z,-3.10
2023-02-07T01:14:25.648Z,-3.20
2023-02-07T01:16:52.449Z,-3.20
2023-02-07T01:19:19.899Z,-3.20
2023-02-07T01:21:46.753Z,-3.10
2023-02-07T01:24:13.631Z,-3.10
2023-02-07T01:26:40.689Z,-3.10
2023-02-07T01:29:09.646Z,-3.10
2023-02-07T01:31:36.630Z,-3.10
2023-02-07T01:34:05.490Z,-3.00
2023-02-07T01:36:32.644Z,-3.00
2023-02-07T01:38:59.547Z,-3.20
2023-02-07T01:41:27.579Z,-3.10
2023-02-07T01:44:02.260Z,-3.00
2023-02-07T01:46:30.931Z,-2.90
2023-02-07T01:49:01.522Z,-2.90
2023-02-07T01:51:31.237Z,-3.10
2023-02-07T01:54:03.430Z,-3.30
2023-02-07T01:56:32.419Z,-3.30
2023-02-07T01:59:04.363Z,-3.30
2023-02-07T02:01:31.348Z,-3.60
2023-02-07T02:03:58.314Z,-3.70
2023-02-07T02:06:29.283Z,-3.90
2023-02-07T02:08:58.808Z,-3.90
2023-02-07T02:11:58.160Z,-3.90
2023-02-07T02:14:46.666Z,-3.90
2023-02-07T02:17:47.640Z,-3.90
2023-02-07T02:20:33.077Z,-3.90
2023-02-07T02:23:02.957Z,-3.90
2023-02-07T02:25:48.200Z,-3.90
2023-02-07T02:28:25.649Z,-3.80
2023-02-07T02:31:07.552Z,-4.00
2023-02-07T02:34:18.914Z,-4.10
2023-02-07T02:36:52.381Z,-4.10
2023-02-07T02:39:33.656Z,-4.10
2023-02-07T02:42:27.521Z,-4.10
2023-02-07T02:45:13.210Z,-4.20
2023-02-07T02:47:44.622Z,-4.20
2023-02-07T02:50:18.030Z,-4.20
2023-02-07T02:52:50.585Z,-4.20
2023-02-07T02:55:48.237Z,-4.20
2023-02-07T02:58:57.596Z,-4.20
2023-02-07T03:01:24.459Z,-4.20
2023-02-07T03:04:21.070Z,-4.20
2023-02-07T03:07:18.758Z,-4.20
2023-02-07T03:09:58.830Z,-4.20
2023-02-07T03:12:46.450Z,-4.30
2023-02-07T03:15:18.750Z,-4.30
2023-02-07T03:18:04.583Z,-4.30
2023-02-07T03:21:09.864Z,-4.40
2023-02-07T03:23:38.021Z,-4.50
2023-02-07T03:26:07.480Z,-4.40
2023-02-07T03:28:37.116Z,-4.40
2023-02-07T03:31:06.600Z,-4.50
2023-02-07T03:33:33.890Z,-4.50
2023-02-07T03:36:36.070Z,-4.50
2023-02-07T03:39:04.175Z,-4.50
2023-02-07T03:41:38.264Z,-4.60
2023-02-07T03:44:07.153Z,-4.60
2023-02-07T03:46:36.957Z,-4.60
2023-02-07T03:49:04.870Z,-4.70
2023-02-07T03:51:31.797Z,-4.70
2023-02-07T03:53:58.652Z,-4.70
2023-02-07T03:56:25.630Z,-4.80
2023-02-07T03:58:52.485Z,-4.80
2023-02-07T04:01:19.647Z,-4.80
2023-02-07T04:03:46.454Z,-4.80
2023-02-07T04:06:13.510Z,-4.80
2023-02-07T04:08:40.617Z,-4.90
2023-02-07T04:11:07.462Z,-4.90
2023-02-07T04:13:34.317Z,-4.90
2023-02-07T04:16:01.388Z,-4.80
2023-02-07T04:18:28.337Z,-4.90
2023-02-07T04:21:03.826Z,-4.90
2023-02-07T04:23:30.871Z,-4.90
2023-02-07T04:25:57.943Z,-5.00
2023-02-07T04:28:25.061Z,-5.00
2023-02-07T04:30:52.490Z,-5.10
2023-02-07T04:33:21.365Z,-5.00
2023-02-07T04:36:02.800Z,-5.10
2023-02-07T04:38:29.828Z,-5.10
2023-02-07T04:41:03.596Z,-5.10
2023-02-07T04:43:31.769Z,-5.20
2023-02-07T04:45:58.617Z,-5.20
2023-02-07T04:48:25.904Z,-5.20
2023-02-07T04:50:53.114Z,-5.20
2023-02-07T04:53:20.103Z,-5.20
2023-02-07T04:55:54.999Z,-5.20
2023-02-07T04:58:22.793Z,-5.20
2023-02-07T05:00:49.774Z,-5.20
2023-02-07T05:03:16.711Z,-5.20
2023-02-07T05:05:45.364Z,-5.20
2023-02-07T05:08:13.287Z,-5.20
2023-02-07T05:10:40.497Z,-5.20
2023-02-07T05:13:07.721Z,-5.20
2023-02-07T05:15:37.819Z,-5.20
2023-02-07T05:18:06.340Z,-5.20
2023-02-07T05:20:34.483Z,-5.20
2023-02-07T05:23:02.228Z,-5.20
2023-02-07T05:25:29.325Z,-5.30
2023-02-07T05:27:56.444Z,-5.30
2023-02-07T05:30:23.822Z,-5.30
2023-02-07T05:33:09.642Z,-5.30
2023-02-07T05:35:46.488Z,-5.30
2023-02-07T05:38:15.940Z,-5.30
2023-02-07T05:40:44.601Z,-5.30
2023-02-07T05:43:13.174Z,-5.30
2023-02-07T05:45:40.919Z,-5.40
2023-02-07T05:48:12.418Z,-5.40
2023-02-07T05:50:39.737Z,-5.30
2023-02-07T05:53:10.298Z,-5.30
2023-02-07T05:55:38.007Z,-5.30
2023-02-07T05:58:05.751Z,-5.30
2023-02-07T06:00:32.983Z,-5.40
2023-02-07T06:02:59.882Z,-5.40
2023-02-07T06:05:32.345Z,-5.30
2023-02-07T06:07:59.960Z,-5.40
2023-02-07T06:10:30.122Z,-5.40
2023-02-07T06:12:58.528Z,-5.50
2023-02-07T06:15:25.373Z,-5.40
2023-02-07T06:17:52.397Z,-5.40
2023-02-07T06:20:19.498Z,-5.40
2023-02-07T06:22:46.896Z,-5.40
2023-02-07T06:25:14.317Z,-5.50
2023-02-07T06:27:42.680Z,-5.50
2023-02-07T06:30:12.189Z,-5.60
2023-02-07T06:32:40.489Z,-5.60
2023-02-07T06:35:08.985Z,-5.60
2023-02-07T06:37:36.338Z,-5.60
2023-02-07T06:40:04.126Z,-5.50
2023-02-07T06:42:33.734Z,-5.60
2023-02-07T06:45:00.964Z,-5.70
2023-02-07T06:47:27.884Z,-5.60
2023-02-07T06:49:54.732Z,-5.60
2023-02-07T06:52:21.637Z,-5.50
2023-02-07T06:54:48.549Z,-5.60
2023-02-07T06:57:15.375Z,-5.50
2023-02-07T06:59:42.610Z,-5.60
2023-02-07T07:02:12.002Z,-5.70
2023-02-07T07:04:38.778Z,-5.60
2023-02-07T07:07:05.809Z,-5.50
2023-02-07T07:09:32.632Z,-5.50
2023-02-07T07:11:59.610Z,-5.50
2023-02-07T07:14:26.484Z,-5.50
2023-02-07T07:16:55.844Z,-5.50
2023-02-07T07:19:23.532Z,-5.50
2023-02-07T07:21:50.654Z,-5.50
2023-02-07T07:24:17.753Z,-5.50
2023-02-07T07:26:49.708Z,-5.50
2023-02-07T07:29:20.375Z,-5.50
2023-02-07T07:31:47.437Z,-5.40
2023-02-07T07:34:14.752Z,-5.50
2023-02-07T07:36:41.844Z,-5.40
2023-02-07T07:39:09.105Z,-5.40
2023-02-07T07:41:36.126Z,-5.30
2023-02-07T07:44:03.289Z,-5.20
2023-02-07T07:46:30.134Z,-5.10
2023-02-07T07:48:57.115Z,-5.00
2023-02-07T07:51:24.018Z,-4.80
2023-02-07T07:53:50.808Z,-4.70
2023-02-07T07:56:17.671Z,-4.60
2023-02-07T07:58:44.550Z,-4.50
2023-02-07T08:01:11.417Z,-4.40
2023-02-07T08:03:38.287Z,-4.30
2023-02-07T08:06:05.650Z,-4.20
2023-02-07T08:08:32.629Z,-4.20
2023-02-07T08:11:05.228Z,-4.10
2023-02-07T08:13:33.141Z,-4.00
2023-02-07T08:16:01.257Z,-4.00
2023-02-07T08:18:29.168Z,-4.10
2023-02-07T08:20:56.486Z,-4.00
2023-02-07T08:23:23.462Z,-3.80
2023-02-07T08:25:50.379Z,-3.70
2023-02-07T08:28:18.183Z,-3.60
2023-02-07T08:30:47.760Z,-3.60
2023-02-07T08:33:16.007Z,-3.40
2023-02-07T08:35:43.132Z,-3.30
2023-02-07T08:38:10.239Z,-3.20
2023-02-07T08:40:37.482Z,-3.20
2023-02-07T08:43:12.267Z,-3.10
2023-02-07T08:45:47.712Z,-3.10
2023-02-07T08:48:14.963Z,-3.00
2023-02-07T08:50:41.819Z,-2.90
2023-02-07T08:53:09.001Z,-2.80
2023-02-07T08:55:39.300Z,-2.80
2023-02-07T08:58:06.265Z,-2.70
2023-02-07T09:00:35.393Z,-2.70
2023-02-07T09:03:03.929Z,-2.70
2023-02-07T09:05:34.507Z,-2.70
2023-02-07T09:08:02.230Z,-2.70
2023-02-07T09:10:29.348Z,-2.60
2023-02-07T09:12:56.594Z,-2.50
2023-02-07T09:15:23.605Z,-2.40
2023-02-07T09:17:50.817Z,-2.20
2023-02-07T09:20:18.519Z,-2.10
2023-02-07T09:23:04.013Z,-2.10
2023-02-07T09:25:31.066Z,-2.20
2023-02-07T09:27:57.952Z,-2.30
2023-02-07T09:30:24.844Z,-2.10
2023-02-07T09:32:52.140Z,-2.20
2023-02-07T09:35:19.128Z,-2.20
2023-02-07T09:37:49.786Z,-2.00
2023-02-07T09:40:19.483Z,-1.70
2023-02-07T09:42:54.301Z,-1.60
2023-02-07T09:45:25.333Z,-1.50
2023-02-07T09:47:59.447Z,-1.40
2023-02-07T09:50:30.980Z,-1.30
2023-02-07T09:53:16.320Z,-1.20
2023-02-07T09:55:52.985Z,-1.20
2023-02-07T09:58:23.155Z,-1.10
2023-02-07T10:01:17.113Z,-1.20
2023-02-07T10:04:04.971Z,-1.20
2023-02-07T10:06:32.996Z,-1.00
2023-02-07T10:09:01.081Z,-1.10
2023-02-07T10:11:44.422Z,-1.10
2023-02-07T10:14:23.905Z,-1.10
2023-02-07T10:17:16.500Z,-1.00
2023-02-07T10:20:18.683Z,-0.90
2023-02-07T10:23:09.657Z,-0.90
2023-02-07T10:26:04.878Z,-0.80
2023-02-07T10:28:40.615Z,-0.70
2023-02-07T10:31:13.744Z,-0.70
2023-02-07T10:33:54.080Z,-0.80
2023-02-07T10:36:22.629Z,-0.80
2023-02-07T10:39:08.630Z,-0.70
2023-02-07T10:41:43.511Z,-0.60
2023-02-07T10:44:17.924Z,-0.50
2023-02-07T10:46:47.491Z,-0.40
2023-02-07T10:49:25.341Z,-0.40
2023-02-07T10:51:56.677Z,-0.30
2023-02-07T10:54:27.168Z,-0.30
2023-02-07T10:57:02.129Z,-0.30
2023-02-07T10:59:45.536Z,-0.20
2023-02-07T11:02:33.507Z,-0.20
2023-02-07T11:05:05.817Z,-0.20
2023-02-07T11:07:42.833Z,-0.20
2023-02-07T11:10:19.529Z,-0.10
2023-02-07T11:12:57.768Z,0.00
2023-02-07T11:15:35.788Z,0.00
2023-02-07T11:18:04.098Z,0.00
2023-02-07T11:20:40.107Z,0.00
2023-02-07T11:23:13.858Z,0.10
2023-02-07T11:25:44.669Z,0.00
2023-02-07T11:28:30.643Z,0.10
2023-02-07T11:31:08.033Z,0.10
2023-02-07T11:33:36.508Z,0.00
2023-02-07T11:36:20.690Z,0.00
2023-02-07T11:39:15.771Z,-0.10
2023-02-07T11:41:42.653Z,0.00
2023-02-07T11:44:16.790Z,0.10
2023-02-07T11:46:47.881Z,0.10
2023-02-07T11:49:25.755Z,0.20
2023-02-07T11:51:59.305Z,0.10
2023-02-07T11:54:27.904Z,0.10
2023-02-07T11:57:02.984Z,0.30
2023-02-07T11:59:29.980Z,0.40
2023-02-07T12:02:21.261Z,0.50
2023-02-07T12:04:49.062Z,0.30
2023-02-07T12:07:38.331Z,0.20
2023-02-07T12:10:13.414Z,0.30
2023-02-07T12:12:48.658Z,0.30
2023-02-07T12:15:18.275Z,0.40
2023-02-07T12:18:11.274Z,0.70
2023-02-07T12:20:52.856Z,0.70
2023-02-07T12:23:42.296Z,0.70
2023-02-07T12:26:32.738Z,0.60
2023-02-07T12:29:13.035Z,0.60
2023-02-07T12:31:56.801Z,0.70
2023-02-07T12:34:36.178Z,0.80
2023-02-07T12:37:17.757Z,0.60
2023-02-07T12:39:53.022Z,0.60
2023-02-07T12:42:38.290Z,0.60
2023-02-07T12:45:07.172Z,0.70
2023-02-07T12:47:54.394Z,0.80
2023-02-07T12:50:44.325Z,0.80
2023-02-07T12:53:30.547Z,0.80
2023-02-07T12:56:19.695Z,0.90
2023-02-07T12:58:55.606Z,1.10
2023-02-07T13:01:40.700Z,1.00
2023-02-07T13:04:26.283Z,1.00
2023-02-07T13:07:07.475Z,1.00
2023-02-07T13:09:42.858Z,1.00
2023-02-07T13:12:24.123Z,1.00
2023-02-07T13:15:05.875Z,1.10
2023-02-07T13:18:14.189Z,1.10
2023-02-07T13:21:03.632Z,1.20
2023-02-07T13:23:36.972Z,1.20
2023-02-07T13:26:13.802Z,1.10
2023-02-07T13:28:44.888Z,1.10
2023-02-07T13:31:17.358Z,1.10
2023-02-07T13:33:46.230Z,1.20
2023-02-07T13:36:37.958Z,1.40
2023-02-07T13:39:14.612Z,1.30
2023-02-07T13:42:19.101Z,1.30
2023-02-07T13:44:57.453Z,1.20
2023-02-07T13:48:02.240Z,1.10
2023-02-07T13:50:46.129Z,1.20
2023-02-07T13:54:00.999Z,1.20
2023-02-07T13:56:54.449Z,1.20
2023-02-07T13:59:39.270Z,1.20
2023-02-07T14:02:15.676Z,1.10
2023-02-07T14:04:50.844Z,1.10
2023-02-07T14:07:31.263Z,1.10
2023-02-07T14:09:59.131Z,1.10
2023-02-07T14:12:29.619Z,0.90
2023-02-07T14:15:16.891Z,0.80
2023-02-07T14:17:43.695Z,0.80
2023-02-07T14:20:37.393Z,0.80
2023-02-07T14:23:13.916Z,0.60
2023-02-07T14:25:42.966Z,0.60
2023-02-07T14:28:18.441Z,0.60
2023-02-07T14:30:48.463Z,0.50
2023-02-07T14:33:35.207Z,0.50
2023-02-07T14:36:14.385Z,0.40
2023-02-07T14:39:01.945Z,0.30
2023-02-07T14:41:36.443Z,0.20
2023-02-07T14:44:09.887Z,0.10
2023-02-07T14:46:48.585Z,0.00
2023-02-07T14:49:30.259Z,0.10
2023-02-07T14:52:02.119Z,0.10
2023-02-07T14:54:46.952Z,0.00
2023-02-07T14:57:53.831Z,0.00
2023-02-07T15:00:45.760Z,0.00
2023-02-07T15:03:16.245Z,0.00
2023-02-07T15:05:55.601Z,0.00
2023-02-07T15:08:25.082Z,0.00
2023-02-07T15:10:54.207Z,-0.10
2023-02-07T15:13:31.101Z,-0.20
2023-02-07T15:16:14.517Z,-0.30
2023-02-07T15:19:22.891Z,-0.30
2023-02-07T15:21:49.963Z,-0.50
2023-02-07T15:24:37.143Z,-0.50
2023-02-07T15:27:25.118Z,-0.50
2023-02-07T15:30:06.758Z,-0.50
2023-02-07T15:32:41.349Z,-0.50
2023-02-07T15:35:19.418Z,-0.50
2023-02-07T15:37:47.403Z,-0.60
2023-02-07T15:40:16.292Z,-0.50
2023-02-07T15:42:58.112Z,-0.40
2023-02-07T15:45:33.361Z,-0.50
2023-02-07T15:48:09.763Z,-0.70
2023-02-07T15:50:38.108Z,-0.60
2023-02-07T15:53:11.097Z,-0.70
2023-02-07T15:55:48.432Z,-0.60
2023-02-07T15:58:36.450Z,-0.50
2023-02-07T16:01:06.934Z,-0.60
2023-02-07T16:03:43.116Z,-0.60
2023-02-07T16:06:22.547Z,-0.60
2023-02-07T16:08:57.463Z,-0.50
2023-02-07T16:11:27.279Z,-0.50
2023-02-07T16:13:59.827Z,-0.70
2023-02-07T16:16:51.723Z,-0.80
2023-02-07T16:19:32.428Z,-0.90
2023-02-07T16:22:12.483Z,-0.90
2023-02-07T16:24:42.720Z,-0.90
2023-02-07T16:27:18.697Z,-0.90
2023-02-07T16:29:45.758Z,-1.00
2023-02-07T16:32:13.833Z,-0.90
2023-02-07T16:34:53.905Z,-1.00
2023-02-07T16:37:24.625Z,-1.00
2023-02-07T16:39:51.453Z,-1.10
2023-02-07T16:42:19.700Z,-1.00
2023-02-07T16:44:47.545Z,-1.00
2023-02-07T16:47:15.732Z,-0.90
2023-02-07T16:49:44.839Z,-0.90
2023-02-07T16:52:11.693Z,-0.90
2023-02-07T16:54:38.615Z,-0.90
2023-02-07T16:57:05.800Z,-1.00
2023-02-07T16:59:32.893Z,-1.20
2023-02-07T17:01:59.746Z,-1.10
2023-02-07T17:04:26.573Z,-1.20
2023-02-07T17:06:53.414Z,-1.20
2023-02-07T17:09:24.557Z,-1.20
2023-02-07T17:11:53.047Z,-1.20
2023-02-07T17:14:20.149Z,-1.30
2023-02-07T17:16:47.601Z,-1.20
2023-02-07T17:19:16.258Z,-1.20
2023-02-07T17:21:43.546Z,-1.10
2023-02-07T17:24:11.267Z,-1.20
2023-02-07T17:26:43.500Z,-1.20
2023-02-07T17:29:15.651Z,-1.10
2023-02-07T17:31:43.414Z,-1.20
2023-02-07T17:34:10.493Z,-1.10
2023-02-07T17:36:45.514Z,-1.20
2023-02-07T17:39:15.173Z,-1.20
2023-02-07T17:41:41.996Z,-1.10
2023-02-07T17:44:08.988Z,-1.20
2023-02-07T17:46:35.853Z,-1.20
2023-02-07T17:49:02.667Z,-1.20
2023-02-07T17:51:29.844Z,-1.30
2023-02-07T17:53:56.714Z,-1.30
2023-02-07T17:56:27.885Z,-1.40
2023-02-07T17:58:56.964Z,-1.40
2023-02-07T18:01:24.201Z,-1.50
2023-02-07T18:03:53.803Z,-1.50
2023-02-07T18:06:23.964Z,-1.40
2023-02-07T18:08:52.417Z,-1.50
2023-02-07T18:11:19.571Z,-1.40
2023-02-07T18:13:48.061Z,-1.40
2023-02-07T18:16:18.243Z,-1.50
2023-02-07T18:18:45.225Z,-1.50
2023-02-07T18:21:13.650Z,-1.50
2023-02-07T18:23:43.040Z,-1.50
2023-02-07T18:26:12.529Z,-1.60
2023-02-07T18:28:39.339Z,-1.60
2023-02-07T18:31:20.581Z,-1.60
2023-02-07T18:33:48.479Z,-1.60
2023-02-07T18:36:16.229Z,-1.60
2023-02-07T18:38:43.539Z,-1.60
2023-02-07T18:41:12.242Z,-1.60
2023-02-07T18:43:40.752Z,-1.60
2023-02-07T18:46:19.278Z,-1.60
2023-02-07T18:48:49.598Z,-1.60
2023-02-07T18:51:17.812Z,-1.60
2023-02-07T18:53:44.952Z,-1.60
2023-02-07T18:56:17.580Z,-1.50
2023-02-07T18:58:48.713Z,-1.60
2023-02-07T19:01:20.096Z,-1.60
2023-02-07T19:03:54.349Z,-1.60
2023-02-07T19:06:27.190Z,-1.70
2023-02-07T19:08:54.296Z,-1.70
2023-02-07T19:11:21.215Z,-1.70
2023-02-07T19:13:48.345Z,-1.70
2023-02-07T19:16:17.930Z,-1.80
2023-02-07T19:18:45.668Z,-1.80
2023-02-07T19:21:15.534Z,-1.80
2023-02-07T19:23:42.775Z,-1.90
2023-02-07T19:26:10.047Z,-1.90
2023-02-07T19:28:37.744Z,-1.90
2023-02-07T19:31:06.580Z,-2.00
2023-02-07T19:33:33.998Z,-2.00
2023-02-07T19:36:09.596Z,-2.00
2023-02-07T19:38:37.531Z,-2.10
2023-02-07T19:41:05.189Z,-2.20
2023-02-07T19:43:32.977Z,-2.20
2023-02-07T19:45:59.895Z,-2.20
2023-02-07T19:48:27.062Z,-2.30
2023-02-07T19:51:02.769Z,-2.30
2023-02-07T19:53:30.283Z,-2.30
2023-02-07T19:56:04.577Z,-2.40
2023-02-07T19:58:33.024Z,-2.40
2023-02-07T20:01:00.123Z,-2.50
2023-02-07T20:03:27.682Z,-2.50
2023-02-07T20:05:54.636Z,-2.50
2023-02-07T20:08:21.764Z,-2.60
2023-02-07T20:10:48.902Z,-2.50
2023-02-07T20:13:15.832Z,-2.60
2023-02-07T20:15:44.678Z,-2.60
2023-02-07T20:18:13.321Z,-2.60
2023-02-07T20:20:46.019Z,-2.60
2023-02-07T20:23:13.964Z,-2.60
2023-02-07T20:25:40.804Z,-2.50
2023-02-07T20:28:09.293Z,-2.60
2023-02-07T20:30:36.617Z,-2.60
2023-02-07T20:33:03.922Z,-2.60
2023-02-07T20:35:30.741Z,-2.60
2023-02-07T20:37:57.590Z,-2.60
2023-02-07T20:40:24.486Z,-2.60
2023-02-07T20:42:51.686Z,-2.60
2023-02-07T20:45:18.655Z,-2.60
2023-02-07T20:47:45.929Z,-2.60
2023-02-07T20:50:13.086Z,-2.70
2023-02-07T20:52:39.957Z,-2.70
2023-02-07T20:55:08.497Z,-2.70
2023-02-07T20:57:35.549Z,-2.60
2023-02-07T21:00:02.874Z,-2.70
2023-02-07T21:02:29.738Z,-2.70
2023-02-07T21:04:56.651Z,-2.70
2023-02-07T21:07:24.616Z,-2.70
2023-02-07T21:09:51.731Z,-2.70
2023-02-07T21:12:18.801Z,-2.70
2023-02-07T21:14:45.662Z,-2.60
2023-02-07T21:17:12.597Z,-2.60
2023-02-07T21:19:40.032Z,-2.70
2023-02-07T21:22:07.386Z,-2.60
2023-02-07T21:24:34.587Z,-2.70
2023-02-07T21:27:03.227Z,-2.60
2023-02-07T21:29:30.201Z,-2.70
2023-02-07T21:31:57.109Z,-2.70
2023-02-07T21:34:25.576Z,-2.70
2023-02-07T21:36:52.585Z,-2.70
2023-02-07T21:39:19.708Z,-2.70
2023-02-07T21:41:47.823Z,-2.80
2023-02-07T21:44:15.372Z,-2.70
2023-02-07T21:46:46.002Z,-2.70
2023-02-07T21:49:16.159Z,-2.70
2023-02-07T21:51:45.177Z,-2.70
2023-02-07T21:54:12.376Z,-2.70
2023-02-07T21:56:41.503Z,-2.70
2023-02-07T21:59:16.401Z,-2.60
2023-02-07T22:01:44.462Z,-2.70
2023-02-07T22:04:11.629Z,-2.70
2023-02-07T22:06:42.097Z,-2.70
2023-02-07T22:09:12.325Z,-2.80
2023-02-07T22:11:39.840Z,-2.70
2023-02-07T22:14:07.119Z,-2.80
2023-02-07T22:16:34.744Z,-2.80
2023-02-07T22:19:03.338Z,-2.80
2023-02-07T22:21:33.147Z,-2.90
2023-02-07T22:24:00.780Z,-2.80
2023-02-07T22:26:28.751Z,-2.80
2023-02-07T22:28:56.756Z,-2.80
2023-02-07T22:31:26.167Z,-2.90
2023-02-07T22:33:54.920Z,-2.90
2023-02-07T22:36:24.753Z,-2.70
2023-02-07T22:38:52.204Z,-2.80
2023-02-07T22:41:20.189Z,-2.80
2023-02-07T22:43:48.184Z,-2.80
2023-02-07T22:46:17.301Z,-2.80
2023-02-07T22:48:44.790Z,-2.80
2023-02-07T22:51:22.952Z,-2.70
2023-02-07T22:53:52.729Z,-2.70
2023-02-07T22:56:19.752Z,-2.70
2023-02-07T22:58:46.658Z,-2.80
2023-02-07T23:01:29.532Z,-2.80
2023-02-07T23:03:57.157Z,-2.80
2023-02-07T23:06:25.156Z,-2.80
2023-02-07T23:08:55.214Z,-2.80
2023-02-07T23:11:23.296Z,-2.90
2023-02-07T23:13:50.858Z,-2.90
2023-02-07T23:16:20.805Z,-3.00
2023-02-07T23:18:49.549Z,-3.00
2023-02-07T23:21:19.742Z,-3.00
2023-02-07T23:23:46.859Z,-3.10
2023-02-07T23:26:15.969Z,-3.00
2023-02-07T23:28:43.371Z,-3.00
2023-02-07T23:31:12.848Z,-2.90
2023-02-07T23:33:39.837Z,-3.00
2023-02-07T23:36:07.781Z,-2.90
2023-02-07T23:38:35.282Z,-2.90
2023-02-07T23:41:02.230Z,-2.90
2023-02-07T23:43:29.345Z,-3.00
2023-02-07T23:45:56.369Z,-3.00
2023-02-07T23:48:23.307Z,-2.90
2023-02-07T23:50:54.733Z,-2.90
2023-02-07T23:53:22.121Z,-2.90
2023-02-07T23:55:50.016Z,-2.90
2023-02-07T23:58:17.146Z,-3.00
